KPNE/PNE METAR and TAF weather

Enter ICAO airport designator
Station Type Date Time Source
KPNE METAR 2019/04/18 13:54 UTC NOAA

KPNE 181354Z 12012KT 10SM OVC015 17/12 A3005 RMK AO2 SLP176 T01670117


Station Type Date Time Source
KPNE Decoded METAR 2019/04/18 13:54 UTC NOAA

N.E. PHILADELPHIA AIRPORT, PA, United States (KPNE) 40-05N 075-01W 28M
Apr 18, 2019 - 09:54 AM EDT / 2019.04.18 1354 UTC
Wind: from the ESE (120 degrees) at 14 MPH (12 KT):0
Visibility: 10 mile(s):0
Sky conditions: overcast
Temperature: 62.1 F (16.7 C)
Dew Point: 53.1 F (11.7 C)
Relative Humidity: 72%
Pressure (altimeter): 30.05 in. Hg (1017 hPa)
ob: KPNE 181354Z 12012KT 10SM OVC015 17/12 A3005 RMK AO2 SLP176 T01670117
cycle: 14

Station Type Date Time Source
KPNE TAF 2019/04/18 12:33 UTC NOAA

TAF KPNE 181130Z 1812/1912 10007KT P6SM OVC020
FM181500 15008KT P6SM BKN015
FM181800 18009KT P6SM SCT100
FM190400 19010KT P6SM BKN150 WS020/20040KT
FM190600 19010KT P6SM BKN200

Example: see airport list